Haleyville, Alabama
Current Conditions -  °F | °C
As of 9:56 PM on Thursday 18 Dec 2014 (Local Time) from K1M4 Reporting Station
Overcast Overcast  
Wind Chill: 41°   Ceiling: 2700
Heat Index: 41°   Visibility: 10mi
Dew Point: 35°   Wind: 0mph
Humidity: 79%   Direction: NA
Pressure: 30.22"   Gusts: NA
Location:  34.23°N, 87.62°W
Report Text: K1M4 190356Z AUTO 00000KT 10SM OVC027 05/02 A3022 RMK AO2 T00500016 SLP244 $
Loading
Personal Weather Stations






























Interactive Weather Map New forecast layout! Learn more

10-Day Weather Forecast

Advertisements
Track Severe Weather on mobile